Sabana Seca, PR

6:21 AM AST on September 19, 2014 (GMT -0400)
KP4MP DAVIS | Change Station
CLOSE
Current Station
Personal Weather Station
Location: Sabana Seca, TOA BAJA
Elevation: 23 ft
Nearby Weather Stations

Elev 23 ft 18.44 °N, 66.18 °W | Updated 17 seconds ago

Light Rain
Light Rain
73.8 °F
Feels Like 71 °F
N
4.9
Wind Variable Wind from SSE
Gusts 10.0 mph

Today
High -- | Low -- °F
--% Chance of Precip.
Yesterday
High -- | Low -- °F
Precip. -- in
6:13 AM 6:23 PM
Waning Crescent, 20% visible
Pressure 29.96 in
Visibility 9.0 miles
Clouds Few 2600 ft
Scattered Clouds 8000 ft
Mostly Cloudy 10000 ft
Heat Index 71 °F
Dew Point 71 °F
Humidity 92%
Rainfall 0.30 in
Snow Depth Not available.
UV 0 out of 12
Pollen Not available.
Air Quality Not available.
Flu Activity Not available.
METAR TJSJ 190956Z COR VRB04KT 9SM -RA FEW026 SCT080 BKN100 23/23 A2996 RMK AO2 TSE55 SLP145 TS DSIPTD FRQ LTGIC DSNT S CB DSNT S P0012 T02330233 $

More Conditions Fewer Conditions

Pressure 29.96 in
Visibility 9.0 miles
Clouds Few 2600 ft
Scattered Clouds 8000 ft
Mostly Cloudy 10000 ft
Heat Index 71 °F
Dew Point 71 °F
Humidity 92%
Rainfall 0.30 in
Snow Depth Not available.
UV 0 out of 12
Pollen Not available.
Air Quality Not available.
Flu Activity Not available.
METAR TJSJ 190956Z COR VRB04KT 9SM -RA FEW026 SCT080 BKN100 23/23 A2996 RMK AO2 TSE55 SLP145 TS DSIPTD FRQ LTGIC DSNT S CB DSNT S P0012 T02330233 $

More Conditions Fewer Conditions

10-Day Weather Forecast

Almanac

Astronomy

Sep. 19, 2014 Rise Set
Actual Time 6:13 AM AST 6:23 PM AST
Civil Twilight 5:51 AM AST 6:45 PM AST
Nautical Twilight 5:25 AM AST 7:10 PM AST
Astronomical Twilight 5:00 AM AST 7:36 PM AST
Moon 2:23 AM AST 3:24 PM AST
Length of Visible Light 12h 54m
Length of Day
12h 10m
Tomorrow will be 1m 3s shorter.
Waning Crescent, 20% of the Moon is Illuminated
Today
Waning Crescent
Sep 24
New
Oct 1
First Quarter
Oct 8
Full
Oct 15
Last Quarter

Community

WunderPhotos

Upload Photos

1,754,583 photos uploaded!

Nearby

Snow Depth

Station Depth Elevation
No new snow has been reported.

Earthquake Activity

City Distance Mag. Time & Date
No recent earthquake activity has been reported nearby.
Minimum magnitude displayed is 2.5.

Coastal Water Temperatures

Place Temperature
San Juan, PR 84.9 °F
Mayaguez, PR 84.9 °F
Esperanza, PR 84.9 °F

Nearby Weather Stations